Saint Joseph, MO (64501)

4:15 AM CST on December 04, 2016 (GMT -0600)
KMOSTJOS3 | | Change Station

Elev 965 ft 39.77 °N, 94.82 °W | Updated 50 seconds ago

Light Rain
Light Rain Mist
39.7 °F
Feels Like 40 °F
N
0.0
Wind Variable Wind from SSW
Gusts 0.0 mph

Today
High -- | Low -- °F
--% Chance of Precip.
Yesterday
High -- | Low -- °F
Precip. -- in
Pressure 30.05 in
Visibility 5.0 miles
Clouds Mostly Cloudy 2000 ft
Overcast 2800 ft
Windchill 40 °F
Dew Point 30 °F
Humidity 68%
Rainfall 0.24 in
Snow Depth Not available.
7:24 AM 4:54 PM
Waxing Crescent, 21% visible
METAR KSTJ 040953Z AUTO 15004KT 5SM -RA BR BKN020 OVC028 04/03 A3004 RMK AO2 SLP175 P0006 T00440033
Pressure 30.05 in
Visibility 5.0 miles
Clouds Mostly Cloudy 2000 ft
Overcast 2800 ft
Windchill 40 °F
Dew Point 30 °F
Humidity 68%
Rainfall 0.24 in
Snow Depth Not available.
7:24 AM 4:54 PM
Waxing Crescent, 21% visible
METAR KSTJ 040953Z AUTO 15004KT 5SM -RA BR BKN020 OVC028 04/03 A3004 RMK AO2 SLP175 P0006 T00440033

10-Day Weather Forecast

Almanac

Astronomy

Dec. 04, 2016 Rise Set
Actual Time
Civil Twilight
Nautical Twilight
Astronomical Twilight
Moon
Length of Visible Light
Length of Day
Tomorrow will be .
, % of the Moon is Illuminated

Today's Extremes

State Highs State Lows

Community

WunderPhotos

Upload Photos

1,955,591 photos uploaded!

WunderBlog® & News

Nearby

Air Quality

  Air Quality AQ Index Pollutant
Not available.

Snow Depth

Station Depth Elevation

Earthquake Activity

City Distance Mag. Time & Date
Minimum magnitude displayed is 2.5.

Coastal Water Temperatures

Place Temperature

Stations

Nearby Weather Stations

Station Location Temp. Windchill Dew Point Humidity Wind Precip. Elev Updated Type
                   

Watches & Warnings

There are currently no watches in effect.